Home   Weather   Canada   Sault Ste. Marie   Past weeks
Flag for Canada

Past Weather in Sault Ste. Marie, Ontario, Canada — Yesterday and Last 2 Weeks

Currently: 48 °F. Overcast. (Weather station: Sault Ste Marie, Canada). See more current weather

Past Weather in Sault Ste. Marie — Graph

°F

Sault Ste. Marie Temperature Yesterday

Maximum temperature yesterday: 70 °F (at 3:00 pm)
Minimum temperature yesterday: 39 °F (at 5:00 am)
Average temperature yesterday: 57 °F

High & Low Weather Summary for the Past Weeks

 TemperatureHumidityPressure
High88 °F (Jun 7, 3:00 pm)100% (Jun 8, 4:00 am)30.19 "Hg (Jun 8, 4:00 am)
Low37 °F (Jun 16, 6:00 am)30% (Jun 16, 6:00 pm)29.31 "Hg (Jun 21, 7:06 am)
Average62 °F76%29.89 "Hg
* Reported Jun 6 1:00 pm — Jun 21 1:23 pm, Sault Ste. Marie. Weather by CustomWeather, © 2021

Note: Actual official high and low records may vary slightly from our data, if they occured in-between our weather recording intervals... More about our weather records

Sault Ste. Marie Weather History for the Previous 24 Hours

Scroll right to see more
 ConditionsComfort  
Time TempWeatherWind HumidityBarometerVisibility
1:23 pm
Mon, Jun 21
48 °FLow clouds.30 mph87%29.58 "Hg15 mi
1:08 pm48 °FLow clouds.31 mph87%29.57 "Hg15 mi
12:42 pm48 °FSprinkles. Fog.25 mph94%29.53 "Hg5 mi
12:00 pm48 °FSprinkles. Fog.23 mph100%29.49 "Hg2 mi
11:51 am50 °FSprinkles. Fog.24 mph94%29.48 "Hg2 mi
11:08 am52 °FSprinkles. Mostly cloudy.24 mph94%29.45 "Hg10 mi
10:06 am54 °FMostly cloudy.21 mph100%29.40 "Hg7 mi
9:13 am55 °FSprinkles. Fog.22 mph100%29.35 "Hg3 mi
8:46 am55 °FRain showers. Fog.17 mph100%29.35 "Hg3 mi
8:00 am57 °FSprinkles. Fog.7 mph100%29.33 "Hg2 mi
7:39 am57 °FSprinkles. Fog.12 mph100%29.33 "Hg2 mi
7:06 am57 °FSprinkles. Cloudy.No wind100%29.31 "Hg7 mi
6:44 am57 °FRain showers. Fog.6 mph100%29.32 "Hg3 mi
6:00 am57 °FSprinkles. Fog.3 mph100%29.34 "Hg5 mi
5:18 am57 °FSprinkles. Fog.7 mph100%29.36 "Hg5 mi
5:10 am57 °FRain showers. Fog.7 mph100%29.37 "Hg4 mi
4:19 am57 °FSprinkles. Fog.7 mph100%29.40 "Hg4 mi
4:13 am57 °FRain showers. Fog.8 mph100%29.40 "Hg3 mi
4:05 am57 °FSprinkles. Fog.9 mph100%29.40 "Hg4 mi
2:42 am57 °FRain showers. Fog.9 mph100%29.44 "Hg3 mi
2:26 am57 °FSprinkles. Fog.10 mph100%29.45 "Hg3 mi
2:00 am57 °FRain showers. Fog.8 mph100%29.48 "Hg2 mi
1:49 am57 °FRain showers. Fog.7 mph100%29.49 "Hg2 mi
1:31 am57 °FLots of rain. Fog.3 mph100%29.51 "Hg2 mi
1:22 am57 °FRain showers. Overcast.5 mph100%29.52 "Hg3 mi
1:04 am57 °FRain showers. Fog.7 mph94%29.52 "Hg5 mi
12:37 am59 °FSprinkles. Mostly cloudy.6 mph88%29.54 "Hg12 mi
12:00 am59 °FMostly cloudy.5 mph88%29.57 "Hg20 mi
11:00 pm
Sun, Jun 20
61 °FOvercast.3 mph77%29.59 "Hg20 mi
10:00 pm61 °FOvercast.5 mph77%29.60 "Hg20 mi
9:48 pm61 °FMostly cloudy.5 mph77%29.60 "Hg20 mi
9:00 pm63 °FSprinkles. Cloudy.3 mph83%29.61 "Hg12 mi
8:00 pm66 °FScattered showers. Mostly cloudy.2 mph64%29.65 "Hg25 mi
7:00 pm68 °FCloudy.3 mph60%29.67 "Hg25 mi
6:00 pm68 °FMostly cloudy.5 mph56%29.67 "Hg25 mi
5:00 pm70 °FBroken clouds.5 mph53%29.68 "Hg25 mi
4:00 pm70 °FBroken clouds.3 mph50%29.70 "Hg25 mi
3:00 pm70 °FBroken clouds.6 mph53%29.73 "Hg25 mi
2:00 pm68 °FBroken clouds.7 mph53%29.75 "Hg25 mi
Weather by CustomWeather, © 2021

See weather overview